createdAt,value
2023-03-28T00:01:10.871Z,3.08
2023-03-28T00:04:14.700Z,3.02
2023-03-28T00:07:17.560Z,2.99
2023-03-28T00:10:21.158Z,2.93
2023-03-28T00:13:24.135Z,2.93
2023-03-28T00:16:35.080Z,2.98
2023-03-28T00:19:40.656Z,2.88
2023-03-28T00:22:44.270Z,2.87
2023-03-28T00:25:47.095Z,2.97
2023-03-28T00:28:50.440Z,2.86
2023-03-28T00:31:53.492Z,2.88
2023-03-28T00:34:56.382Z,2.86
2023-03-28T00:37:59.271Z,2.95
2023-03-28T00:41:02.518Z,2.83
2023-03-28T00:44:43.684Z,2.93
2023-03-28T00:47:51.796Z,2.95
2023-03-28T00:51:03.779Z,2.89
2023-03-28T00:54:13.146Z,2.70
2023-03-28T00:57:16.779Z,2.62
2023-03-28T01:00:21.242Z,2.74
2023-03-28T01:03:29.924Z,2.69
2023-03-28T01:06:41.804Z,2.65
2023-03-28T01:09:52.636Z,2.60
2023-03-28T01:12:57.611Z,2.65
2023-03-28T01:16:02.819Z,2.36
2023-03-28T01:19:26.875Z,2.55
2023-03-28T01:22:35.795Z,2.43
2023-03-28T01:25:44.554Z,2.40
2023-03-28T01:29:27.405Z,2.57
2023-03-28T01:32:47.977Z,2.56
2023-03-28T01:36:01.344Z,2.47
2023-03-28T01:39:17.373Z,2.54
2023-03-28T01:42:20.686Z,2.45
2023-03-28T01:45:41.769Z,2.41
2023-03-28T01:49:18.738Z,2.48
2023-03-28T01:52:40.418Z,2.41
2023-03-28T01:55:54.919Z,2.27
2023-03-28T01:59:14.131Z,2.47
2023-03-28T02:02:45.157Z,2.38
2023-03-28T02:06:10.752Z,2.34
2023-03-28T02:09:19.893Z,2.28
2023-03-28T02:12:40.666Z,2.17
2023-03-28T02:15:51.830Z,2.31
2023-03-28T02:19:14.319Z,2.35
2023-03-28T02:22:54.001Z,2.21
2023-03-28T02:26:12.430Z,2.28
2023-03-28T02:29:32.196Z,2.27
2023-03-28T02:32:50.639Z,2.39
2023-03-28T02:36:26.631Z,2.37
2023-03-28T02:39:32.356Z,2.40
2023-03-28T02:42:39.643Z,2.22
2023-03-28T02:46:06.849Z,2.22
2023-03-28T02:49:50.044Z,2.16
2023-03-28T02:53:16.771Z,2.33
2023-03-28T02:56:51.291Z,2.25
2023-03-28T03:00:18.750Z,2.33
2023-03-28T03:03:23.745Z,2.28
2023-03-28T03:06:26.848Z,2.21
2023-03-28T03:09:29.669Z,2.25
2023-03-28T03:12:34.132Z,2.38
2023-03-28T03:15:37.293Z,2.29
2023-03-28T03:18:57.739Z,2.15
2023-03-28T03:22:04.059Z,2.10
2023-03-28T03:25:13.896Z,2.18
2023-03-28T03:28:44.697Z,2.10
2023-03-28T03:31:50.512Z,2.04
2023-03-28T03:35:20.376Z,1.87
2023-03-28T03:38:24.545Z,2.05
2023-03-28T03:41:28.015Z,2.05
2023-03-28T03:44:30.640Z,2.01
2023-03-28T03:47:33.670Z,2.06
2023-03-28T03:50:40.771Z,2.04
2023-03-28T03:53:53.440Z,2.00
2023-03-28T03:57:01.739Z,1.87
2023-03-28T04:00:11.801Z,1.81
2023-03-28T04:03:26.995Z,1.91
2023-03-28T04:06:30.314Z,1.96
2023-03-28T04:09:35.152Z,1.85
2023-03-28T04:12:39.842Z,1.73
2023-03-28T04:15:42.693Z,1.71
2023-03-28T04:18:58.007Z,1.88
2023-03-28T04:22:00.683Z,1.94
2023-03-28T04:25:04.671Z,1.81
2023-03-28T04:28:12.997Z,1.87
2023-03-28T04:31:30.446Z,1.92
2023-03-28T04:35:01.187Z,1.96
2023-03-28T04:38:04.115Z,1.90
2023-03-28T04:41:11.433Z,1.92
2023-03-28T04:44:43.391Z,1.95
2023-03-28T04:47:48.311Z,2.03
2023-03-28T04:50:55.738Z,2.09
2023-03-28T04:53:58.748Z,2.09
2023-03-28T04:57:21.839Z,2.09
2023-03-28T05:00:29.564Z,2.13
2023-03-28T05:03:33.841Z,2.08
2023-03-28T05:06:38.977Z,2.02
2023-03-28T05:09:41.707Z,2.14
2023-03-28T05:12:44.252Z,2.13
2023-03-28T05:15:47.671Z,2.14
2023-03-28T05:18:59.138Z,2.13
2023-03-28T05:22:22.588Z,2.30
2023-03-28T05:25:25.903Z,2.32
2023-03-28T05:28:29.231Z,2.25
2023-03-28T05:31:33.178Z,2.48
2023-03-28T05:34:50.910Z,2.46
2023-03-28T05:37:53.489Z,2.50
2023-03-28T05:40:58.798Z,2.64
2023-03-28T05:44:01.935Z,2.63
2023-03-28T05:47:22.142Z,2.66
2023-03-28T05:50:26.391Z,2.68
2023-03-28T05:53:35.870Z,2.69
2023-03-28T05:56:38.519Z,2.73
2023-03-28T05:59:41.329Z,2.89
2023-03-28T06:02:43.958Z,3.07
2023-03-28T06:05:46.855Z,2.96
2023-03-28T06:08:58.071Z,3.12
2023-03-28T06:12:03.559Z,3.13
2023-03-28T06:15:07.268Z,3.20
2023-03-28T06:18:12.817Z,3.24
2023-03-28T06:21:21.391Z,3.29
2023-03-28T06:24:25.052Z,3.44
2023-03-28T06:27:27.606Z,3.47
2023-03-28T06:30:31.665Z,3.54
2023-03-28T06:33:35.298Z,3.58
2023-03-28T06:36:39.742Z,3.62
2023-03-28T06:39:43.826Z,3.75
2023-03-28T06:42:46.535Z,3.71
2023-03-28T06:46:08.996Z,3.86
2023-03-28T06:49:17.616Z,3.95
2023-03-28T06:52:38.848Z,4.13
2023-03-28T06:55:44.269Z,4.21
2023-03-28T06:58:46.928Z,4.20
2023-03-28T07:01:52.082Z,4.37
2023-03-28T07:05:02.219Z,4.44
2023-03-28T07:08:05.864Z,4.60
2023-03-28T07:11:09.848Z,4.53
2023-03-28T07:14:13.669Z,4.64
2023-03-28T07:17:16.385Z,4.62
2023-03-28T07:20:20.460Z,4.76
2023-03-28T07:23:24.964Z,4.79
2023-03-28T07:26:29.966Z,4.79
2023-03-28T07:29:32.467Z,4.88
2023-03-28T07:32:47.894Z,4.99
2023-03-28T07:35:56.366Z,5.17
2023-03-28T07:38:59.243Z,5.32
2023-03-28T07:42:02.225Z,5.54
2023-03-28T07:45:05.592Z,5.63
2023-03-28T07:48:08.481Z,5.71
2023-03-28T07:51:12.155Z,5.84
2023-03-28T07:54:17.934Z,5.83
2023-03-28T07:57:22.361Z,6.06
2023-03-28T08:00:35.628Z,5.97
2023-03-28T08:04:12.319Z,6.05
2023-03-28T08:07:27.171Z,6.35
2023-03-28T08:10:32.378Z,6.65
2023-03-28T08:13:35.533Z,6.91
2023-03-28T08:16:46.136Z,7.04
2023-03-28T08:19:51.113Z,7.38
2023-03-28T08:23:03.156Z,7.69
2023-03-28T08:26:27.166Z,7.80
2023-03-28T08:29:32.854Z,7.72
2023-03-28T08:32:36.537Z,7.45
2023-03-28T08:35:39.195Z,7.73
2023-03-28T08:38:50.920Z,8.26
2023-03-28T08:42:12.855Z,8.49
2023-03-28T08:45:42.825Z,8.81
2023-03-28T08:48:47.696Z,8.40
2023-03-28T08:51:58.932Z,8.05
2023-03-28T08:55:07.608Z,8.58
2023-03-28T08:58:15.440Z,10.18
2023-03-28T09:01:22.259Z,15.90
2023-03-28T09:04:35.384Z,19.01
2023-03-28T09:08:01.423Z,20.01
2023-03-28T09:11:10.869Z,21.25
2023-03-28T09:14:24.741Z,20.36
2023-03-28T09:17:51.015Z,15.30
2023-03-28T09:21:11.015Z,14.91
2023-03-28T09:24:58.037Z,19.74
2023-03-28T09:28:18.795Z,22.80
2023-03-28T09:31:28.050Z,19.11
2023-03-28T09:34:39.505Z,21.67
2023-03-28T09:37:47.103Z,22.35
2023-03-28T09:40:55.246Z,23.46
2023-03-28T09:44:01.354Z,25.37
2023-03-28T09:47:14.907Z,21.52
2023-03-28T09:50:27.743Z,14.92
2023-03-28T09:53:37.850Z,15.89
2023-03-28T09:56:43.508Z,20.40
2023-03-28T10:00:21.149Z,22.22
2023-03-28T10:03:39.805Z,25.47
2023-03-28T10:06:48.234Z,25.38
2023-03-28T10:09:54.595Z,25.58
2023-03-28T10:13:02.931Z,26.13
2023-03-28T10:16:06.861Z,23.13
2023-03-28T10:19:42.175Z,24.47
2023-03-28T10:22:56.629Z,24.59
2023-03-28T10:26:06.191Z,24.63
2023-03-28T10:29:10.498Z,27.31
2023-03-28T10:32:23.307Z,22.14
2023-03-28T10:35:55.735Z,25.88
2023-03-28T10:38:59.825Z,27.18
2023-03-28T10:42:22.887Z,27.26
2023-03-28T10:45:51.156Z,28.05
2023-03-28T10:49:23.506Z,19.75
2023-03-28T10:53:28.876Z,21.84
2023-03-28T10:56:34.447Z,25.57
2023-03-28T10:59:47.657Z,28.57
2023-03-28T11:03:29.262Z,26.33
2023-03-28T11:06:47.089Z,24.12
2023-03-28T11:10:11.341Z,22.98
2023-03-28T11:13:31.342Z,21.27
2023-03-28T11:17:13.026Z,18.63
2023-03-28T11:20:52.931Z,16.57
2023-03-28T11:23:55.580Z,17.41
2023-03-28T11:27:26.660Z,16.05
2023-03-28T11:30:41.367Z,25.05
2023-03-28T11:35:02.376Z,24.82
2023-03-28T11:38:34.865Z,27.42
2023-03-28T11:41:41.350Z,29.95
2023-03-28T11:45:25.782Z,29.65
2023-03-28T11:48:49.252Z,28.35
2023-03-28T11:52:10.643Z,23.60
2023-03-28T11:55:18.490Z,23.99
2023-03-28T11:58:28.056Z,27.30
2023-03-28T12:01:35.379Z,29.50
2023-03-28T12:05:01.850Z,29.32
2023-03-28T12:08:48.023Z,30.10
2023-03-28T12:12:11.793Z,28.15
2023-03-28T12:15:27.527Z,28.84
2023-03-28T12:19:01.049Z,27.40
2023-03-28T12:22:30.427Z,27.83
2023-03-28T12:25:45.949Z,28.38
2023-03-28T12:28:53.861Z,27.88
2023-03-28T12:32:03.496Z,29.91
2023-03-28T12:35:15.871Z,29.50
2023-03-28T12:38:29.426Z,30.43
2023-03-28T12:41:55.218Z,29.03
2023-03-28T12:45:02.283Z,30.44
2023-03-28T12:48:17.524Z,30.81
2023-03-28T12:51:38.993Z,32.24
2023-03-28T12:55:01.435Z,32.57
2023-03-28T12:58:21.961Z,31.06
2023-03-28T13:01:47.937Z,26.63
2023-03-28T13:05:28.893Z,27.40
2023-03-28T13:08:31.436Z,20.87
2023-03-28T13:11:53.460Z,15.39
2023-03-28T13:15:02.940Z,14.70
2023-03-28T13:18:17.411Z,13.83
2023-03-28T13:22:00.400Z,13.54
2023-03-28T13:25:21.635Z,12.26
2023-03-28T13:28:50.852Z,12.15
2023-03-28T13:32:04.358Z,13.05
2023-03-28T13:35:09.198Z,19.94
2023-03-28T13:38:15.351Z,21.92
2023-03-28T13:41:43.181Z,21.67
2023-03-28T13:44:57.352Z,22.46
2023-03-28T13:48:12.113Z,20.99
2023-03-28T13:51:22.417Z,22.46
2023-03-28T13:54:25.969Z,23.22
2023-03-28T13:57:30.145Z,18.87
2023-03-28T14:00:33.169Z,18.32
2023-03-28T14:03:36.978Z,17.83
2023-03-28T14:06:42.179Z,16.44
2023-03-28T14:09:44.811Z,19.44
2023-03-28T14:12:50.355Z,20.18
2023-03-28T14:15:53.692Z,22.04
2023-03-28T14:18:56.787Z,21.72
2023-03-28T14:21:59.901Z,23.19
2023-03-28T14:25:06.864Z,23.52
2023-03-28T14:28:09.585Z,22.88
2023-03-28T14:31:27.893Z,22.60
2023-03-28T14:34:30.895Z,22.07
2023-03-28T14:37:34.575Z,21.68
2023-03-28T14:40:41.408Z,20.75
2023-03-28T14:43:52.312Z,19.96
2023-03-28T14:46:58.594Z,19.93
2023-03-28T14:50:02.486Z,19.85
2023-03-28T14:53:08.399Z,18.82
2023-03-28T14:56:19.376Z,19.57
2023-03-28T14:59:31.388Z,14.39
2023-03-28T15:02:36.514Z,11.66
2023-03-28T15:05:58.447Z,11.27
2023-03-28T15:09:41.213Z,11.02
2023-03-28T15:13:13.110Z,10.46
2023-03-28T15:16:39.654Z,10.15
2023-03-28T15:19:42.236Z,10.16
2023-03-28T15:22:50.575Z,9.99
2023-03-28T15:25:54.147Z,10.08
2023-03-28T15:28:58.112Z,9.93
2023-03-28T15:32:07.355Z,10.10
2023-03-28T15:35:27.177Z,10.04
2023-03-28T15:38:30.020Z,9.87
2023-03-28T15:41:45.645Z,9.93
2023-03-28T15:44:56.870Z,9.93
2023-03-28T15:47:59.599Z,9.65
2023-03-28T15:51:05.920Z,9.57
2023-03-28T15:54:23.954Z,9.29
2023-03-28T15:57:33.619Z,8.74
2023-03-28T16:00:49.299Z,8.33
2023-03-28T16:04:12.462Z,8.07
2023-03-28T16:07:17.236Z,7.85
2023-03-28T16:10:22.947Z,7.72
2023-03-28T16:13:46.226Z,7.62
2023-03-28T16:17:18.015Z,7.48
2023-03-28T16:20:30.830Z,7.26
2023-03-28T16:23:39.364Z,7.13
2023-03-28T16:26:42.181Z,6.99
2023-03-28T16:29:45.281Z,6.85
2023-03-28T16:32:47.932Z,6.68
2023-03-28T16:35:52.046Z,6.54
2023-03-28T16:38:54.764Z,6.47
2023-03-28T16:41:58.303Z,6.29
2023-03-28T16:45:01.034Z,6.37
2023-03-28T16:48:07.457Z,6.20
2023-03-28T16:51:10.163Z,6.11
2023-03-28T16:54:12.875Z,6.22
2023-03-28T16:57:15.911Z,6.18
2023-03-28T17:00:20.537Z,6.11
2023-03-28T17:03:23.513Z,5.98
2023-03-28T17:06:27.630Z,6.05
2023-03-28T17:09:31.102Z,6.00
2023-03-28T17:12:34.830Z,6.11
2023-03-28T17:15:38.885Z,6.10
2023-03-28T17:18:41.683Z,6.07
2023-03-28T17:21:45.284Z,6.05
2023-03-28T17:24:48.584Z,5.82
2023-03-28T17:27:51.749Z,5.66
2023-03-28T17:30:57.641Z,5.57
2023-03-28T17:34:00.941Z,5.39
2023-03-28T17:37:04.382Z,5.33
2023-03-28T17:40:08.279Z,5.25
2023-03-28T17:43:12.298Z,5.26
2023-03-28T17:46:16.489Z,5.01
2023-03-28T17:49:19.834Z,5.21
2023-03-28T17:52:24.333Z,5.26
2023-03-28T17:55:27.303Z,5.15
2023-03-28T17:58:30.677Z,5.05
2023-03-28T18:01:34.334Z,5.06
2023-03-28T18:04:37.182Z,5.05
2023-03-28T18:07:50.209Z,5.02
2023-03-28T18:10:54.309Z,5.06
2023-03-28T18:13:59.300Z,5.11
2023-03-28T18:17:02.511Z,5.03
2023-03-28T18:20:07.527Z,4.95
2023-03-28T18:23:11.176Z,4.82
2023-03-28T18:26:15.808Z,4.78
2023-03-28T18:29:20.122Z,4.83
2023-03-28T18:32:26.036Z,4.61
2023-03-28T18:35:29.833Z,4.62
2023-03-28T18:38:42.898Z,4.64
2023-03-28T18:41:46.184Z,4.60
2023-03-28T18:44:50.175Z,4.68
2023-03-28T18:47:54.120Z,4.59
2023-03-28T18:50:58.893Z,4.65
2023-03-28T18:54:03.867Z,4.48
2023-03-28T18:57:07.909Z,4.44
2023-03-28T19:00:24.366Z,4.37
2023-03-28T19:03:30.752Z,4.43
2023-03-28T19:06:36.784Z,4.43
2023-03-28T19:09:40.550Z,4.46
2023-03-28T19:12:44.580Z,4.51
2023-03-28T19:15:57.596Z,4.39
2023-03-28T19:19:01.919Z,4.40
2023-03-28T19:22:06.981Z,4.29
2023-03-28T19:25:11.348Z,4.32
2023-03-28T19:28:16.011Z,4.18
2023-03-28T19:31:22.535Z,4.18
2023-03-28T19:34:26.667Z,4.26
2023-03-28T19:37:30.352Z,4.18
2023-03-28T19:40:35.952Z,4.15
2023-03-28T19:43:39.895Z,4.12
2023-03-28T19:46:44.206Z,4.18
2023-03-28T19:49:49.875Z,4.09
2023-03-28T19:52:53.481Z,4.14
2023-03-28T19:55:59.935Z,4.20
2023-03-28T19:59:05.124Z,4.13
2023-03-28T20:02:10.875Z,4.09
2023-03-28T20:05:14.347Z,3.91
2023-03-28T20:08:19.619Z,3.91
2023-03-28T20:11:23.671Z,4.03
2023-03-28T20:14:27.072Z,4.07
2023-03-28T20:17:33.096Z,3.92
2023-03-28T20:20:39.745Z,3.74
2023-03-28T20:23:43.182Z,3.85
2023-03-28T20:26:46.640Z,3.97
2023-03-28T20:29:49.963Z,4.01
2023-03-28T20:32:54.523Z,3.91
2023-03-28T20:35:59.664Z,3.90
2023-03-28T20:39:04.401Z,4.00
2023-03-28T20:42:08.108Z,3.91
2023-03-28T20:45:22.293Z,3.84
2023-03-28T20:48:34.675Z,3.88
2023-03-28T20:51:39.526Z,3.88
2023-03-28T20:54:42.194Z,3.86
2023-03-28T20:57:44.715Z,3.94
2023-03-28T21:00:47.714Z,3.89
2023-03-28T21:03:51.812Z,3.95
2023-03-28T21:06:55.290Z,3.83
2023-03-28T21:09:59.579Z,3.89
2023-03-28T21:13:03.277Z,3.74
2023-03-28T21:16:09.275Z,3.67
2023-03-28T21:19:12.147Z,3.73
2023-03-28T21:22:15.021Z,3.65
2023-03-28T21:25:17.742Z,3.50
2023-03-28T21:28:21.711Z,3.50
2023-03-28T21:31:27.322Z,3.63
2023-03-28T21:34:34.027Z,3.56
2023-03-28T21:37:37.076Z,3.53
2023-03-28T21:40:39.633Z,3.49
2023-03-28T21:43:42.483Z,3.38
2023-03-28T21:46:45.846Z,3.35
2023-03-28T21:49:49.656Z,3.39
2023-03-28T21:52:52.586Z,3.38
2023-03-28T21:55:56.368Z,3.35
2023-03-28T21:58:59.349Z,3.23
2023-03-28T22:02:02.050Z,3.19
2023-03-28T22:05:06.105Z,3.36
2023-03-28T22:08:13.909Z,3.39
2023-03-28T22:11:19.105Z,3.47
2023-03-28T22:14:21.979Z,3.35
2023-03-28T22:17:24.774Z,3.18
2023-03-28T22:20:29.311Z,3.08
2023-03-28T22:23:32.348Z,3.06
2023-03-28T22:26:36.024Z,3.15
2023-03-28T22:29:38.640Z,3.27
2023-03-28T22:32:41.880Z,3.08
2023-03-28T22:35:47.108Z,2.82
2023-03-28T22:38:50.036Z,3.00
2023-03-28T22:41:54.121Z,2.99
2023-03-28T22:44:56.738Z,2.98
2023-03-28T22:48:03.185Z,2.98
2023-03-28T22:51:11.855Z,2.94
2023-03-28T22:54:22.846Z,2.93
2023-03-28T22:57:25.496Z,2.85
2023-03-28T23:00:28.775Z,2.86
2023-03-28T23:03:32.548Z,2.64
2023-03-28T23:06:36.157Z,2.48
2023-03-28T23:09:38.722Z,2.71
2023-03-28T23:12:43.030Z,2.44
2023-03-28T23:15:45.959Z,2.54
2023-03-28T23:18:52.275Z,2.41
2023-03-28T23:21:55.440Z,2.49
2023-03-28T23:24:58.143Z,2.33
2023-03-28T23:28:00.941Z,2.32
2023-03-28T23:31:04.028Z,2.40
2023-03-28T23:34:08.117Z,2.49
2023-03-28T23:37:10.620Z,2.41
2023-03-28T23:40:16.096Z,2.55
2023-03-28T23:43:18.749Z,2.50
2023-03-28T23:46:22.484Z,2.59
2023-03-28T23:49:25.281Z,2.51
2023-03-28T23:52:28.420Z,2.52
2023-03-28T23:55:32.079Z,2.58
2023-03-28T23:58:36.095Z,2.72
